createdAt,value
2019-03-13T00:02:00.769Z,1.8
2019-03-13T00:05:00.823Z,1.9
2019-03-13T00:08:00.757Z,1.6
2019-03-13T00:11:00.842Z,1.7
2019-03-13T00:14:00.660Z,1.5
2019-03-13T00:17:00.887Z,1.5
2019-03-13T00:20:00.878Z,1.5
2019-03-13T00:23:00.989Z,1.4
2019-03-13T00:26:00.924Z,1.5
2019-03-13T00:29:00.684Z,1.6
2019-03-13T00:32:00.610Z,1.4
2019-03-13T00:35:00.629Z,1.4
2019-03-13T00:38:00.638Z,1.3
2019-03-13T00:41:00.675Z,1.3
2019-03-13T00:44:00.816Z,1.2
2019-03-13T00:47:00.722Z,1.3
2019-03-13T00:50:00.827Z,1.3
2019-03-13T00:53:00.650Z,1.3
2019-03-13T00:56:00.663Z,1.6
2019-03-13T00:59:00.687Z,1.4
2019-03-13T01:02:00.854Z,1.3
2019-03-13T01:05:00.758Z,1.3
2019-03-13T01:08:00.748Z,1.3
2019-03-13T01:11:00.588Z,1.3
2019-03-13T01:14:01.008Z,1.3
2019-03-13T01:17:00.894Z,1.3
2019-03-13T01:20:00.906Z,1.2
2019-03-13T01:23:00.600Z,1.3
2019-03-13T01:26:00.637Z,1.3
2019-03-13T01:29:00.664Z,1.3
2019-03-13T01:32:00.729Z,1.3
2019-03-13T01:35:00.654Z,1.2
2019-03-13T01:38:00.872Z,1.2
2019-03-13T01:41:00.707Z,1.2
2019-03-13T01:44:00.749Z,1.2
2019-03-13T01:47:00.692Z,1.1
2019-03-13T01:50:00.757Z,1.2
2019-03-13T01:53:00.739Z,1.2
2019-03-13T01:56:00.819Z,1.2
2019-03-13T01:59:00.610Z,1.2
2019-03-13T02:02:00.817Z,1.3
2019-03-13T02:05:00.843Z,1.5
2019-03-13T02:08:00.823Z,1.4
2019-03-13T02:11:00.877Z,1.2
2019-03-13T02:14:00.689Z,1.2
2019-03-13T02:17:00.630Z,1.1
2019-03-13T02:20:00.734Z,1.2
2019-03-13T02:23:00.721Z,1.1
2019-03-13T02:26:00.643Z,1.1
2019-03-13T02:29:00.678Z,1.1
2019-03-13T02:32:00.941Z,1
2019-03-13T02:35:00.685Z,1.1
2019-03-13T02:38:00.622Z,1.1
2019-03-13T02:41:00.726Z,1.1
2019-03-13T02:44:00.774Z,1.1
2019-03-13T02:47:00.884Z,1.1
2019-03-13T02:50:00.816Z,1.1
2019-03-13T02:53:00.886Z,1
2019-03-13T02:56:00.644Z,1.1
2019-03-13T02:59:00.741Z,1.1
2019-03-13T03:02:00.658Z,1.1
2019-03-13T03:05:00.768Z,1
2019-03-13T03:08:00.736Z,1.3
2019-03-13T03:11:00.733Z,1.1
2019-03-13T03:14:00.676Z,1.1
2019-03-13T03:17:00.676Z,1.1
2019-03-13T03:20:01.021Z,1
2019-03-13T03:23:00.790Z,1
2019-03-13T03:26:00.872Z,1
2019-03-13T03:29:00.900Z,1
2019-03-13T03:32:00.915Z,1.1
2019-03-13T03:35:02.473Z,1
2019-03-13T03:38:00.791Z,0.9
2019-03-13T03:41:00.972Z,1
2019-03-13T03:44:00.916Z,0.9
2019-03-13T03:47:00.982Z,0.9
2019-03-13T03:50:01.117Z,0.9
2019-03-13T03:53:00.694Z,1
2019-03-13T03:56:00.596Z,0.9
2019-03-13T03:59:00.707Z,0.9
2019-03-13T04:02:00.594Z,0.9
2019-03-13T04:05:01.120Z,1.2
2019-03-13T04:08:00.727Z,1.1
2019-03-13T04:11:00.573Z,1
2019-03-13T04:14:00.765Z,1
2019-03-13T04:17:00.719Z,1.1
2019-03-13T04:20:01.083Z,1
2019-03-13T04:23:00.720Z,1
2019-03-13T04:26:00.761Z,0.9
2019-03-13T04:29:00.719Z,0.9
2019-03-13T04:32:00.749Z,0.9
2019-03-13T04:35:01.129Z,1
2019-03-13T04:38:00.788Z,0.9
2019-03-13T04:41:00.693Z,0.9
2019-03-13T04:44:00.783Z,0.9
2019-03-13T04:47:00.752Z,1
2019-03-13T04:50:00.844Z,2.7
2019-03-13T04:53:00.826Z,3.6
2019-03-13T04:56:00.568Z,4.9
2019-03-13T04:59:00.587Z,4
2019-03-13T05:02:00.587Z,3
2019-03-13T05:05:00.620Z,3
2019-03-13T05:08:00.603Z,3.6
2019-03-13T05:11:00.940Z,2.9
2019-03-13T05:14:00.664Z,2.1
2019-03-13T05:17:00.715Z,2.7
2019-03-13T05:20:00.747Z,3.1
2019-03-13T05:23:00.627Z,2.6
2019-03-13T05:26:00.723Z,2
2019-03-13T05:29:00.863Z,40.6
2019-03-13T05:32:00.697Z,24.3
2019-03-13T05:35:00.761Z,15.1
2019-03-13T05:38:00.712Z,11.2
2019-03-13T05:41:01.076Z,7.3
2019-03-13T05:44:00.702Z,6.9
2019-03-13T05:47:00.539Z,4.8
2019-03-13T05:50:00.885Z,4.3
2019-03-13T05:53:00.540Z,4.5
2019-03-13T05:56:00.675Z,3
2019-03-13T05:59:00.543Z,2.6
2019-03-13T06:02:00.546Z,1.9
2019-03-13T06:05:00.832Z,2.1
2019-03-13T06:08:00.582Z,1.9
2019-03-13T06:11:00.625Z,2
2019-03-13T06:14:00.624Z,2.9
2019-03-13T06:17:00.666Z,2.6
2019-03-13T06:20:00.890Z,2.7
2019-03-13T06:23:00.780Z,2.1
2019-03-13T06:26:00.659Z,2.1
2019-03-13T06:29:00.651Z,2
2019-03-13T06:32:00.682Z,2.4
2019-03-13T06:35:00.951Z,1.8
2019-03-13T06:38:00.757Z,2.2
2019-03-13T06:41:00.618Z,1.7
2019-03-13T06:44:00.512Z,1.4
2019-03-13T06:47:00.670Z,1.5
2019-03-13T06:50:00.709Z,1.3
2019-03-13T06:53:00.559Z,1.1
2019-03-13T06:56:00.659Z,1.2
2019-03-13T06:59:00.626Z,1.4
2019-03-13T07:02:00.644Z,1.1
2019-03-13T07:05:00.838Z,1
2019-03-13T07:08:00.726Z,0.9
2019-03-13T07:11:00.695Z,1
2019-03-13T07:14:00.635Z,1
2019-03-13T07:17:00.733Z,1
2019-03-13T07:20:00.903Z,1.2
2019-03-13T07:23:00.693Z,1.2
2019-03-13T07:26:00.680Z,1.1
2019-03-13T07:29:13.210Z,1.1
2019-03-13T07:32:00.743Z,1
2019-03-13T07:35:00.674Z,1
2019-03-13T07:38:00.754Z,0.9
2019-03-13T07:41:00.763Z,1
2019-03-13T07:44:00.694Z,1
2019-03-13T07:47:00.728Z,1
2019-03-13T07:50:00.949Z,1.2
2019-03-13T07:53:00.724Z,1.1
2019-03-13T07:56:00.719Z,1
2019-03-13T07:59:00.797Z,0.9
2019-03-13T08:02:00.437Z,1.1
2019-03-13T08:05:00.657Z,1
2019-03-13T08:08:00.502Z,1.1
2019-03-13T08:11:00.586Z,1.1
2019-03-13T08:14:00.590Z,1
2019-03-13T08:17:00.499Z,1
2019-03-13T08:20:00.703Z,0.9
2019-03-13T08:23:00.729Z,1
2019-03-13T08:26:00.608Z,0.9
2019-03-13T08:29:00.767Z,1.2
2019-03-13T08:32:00.799Z,1.1
2019-03-13T08:35:00.878Z,1
2019-03-13T08:38:00.730Z,1.3
2019-03-13T08:41:00.640Z,1.2
2019-03-13T08:44:00.529Z,1.3
2019-03-13T08:47:00.544Z,1.1
2019-03-13T08:50:00.783Z,1.1
2019-03-13T08:53:00.795Z,1.6
2019-03-13T08:56:00.668Z,1.3
2019-03-13T08:59:00.610Z,1.7
2019-03-13T09:02:00.738Z,1.4
2019-03-13T09:05:00.889Z,3
2019-03-13T09:08:00.706Z,2.4
2019-03-13T09:11:00.608Z,2.6
2019-03-13T09:14:00.675Z,4.2
2019-03-13T09:17:00.441Z,3.9
2019-03-13T09:20:00.817Z,4.3
2019-03-13T09:23:00.600Z,5.8
2019-03-13T09:26:00.752Z,4.8
2019-03-13T09:29:00.466Z,4
2019-03-13T09:32:00.501Z,3.3
2019-03-13T09:35:00.598Z,3
2019-03-13T09:38:00.539Z,3
2019-03-13T09:41:00.494Z,2.2
2019-03-13T09:44:00.646Z,2
2019-03-13T09:47:00.577Z,2.6
2019-03-13T09:50:00.696Z,2.9
2019-03-13T09:53:00.564Z,3.6
2019-03-13T09:56:00.615Z,2.8
2019-03-13T09:59:00.750Z,2.6
2019-03-13T10:02:00.586Z,3.9
2019-03-13T10:05:00.613Z,4.2
2019-03-13T10:08:00.826Z,3.1
2019-03-13T10:11:00.562Z,2.4
2019-03-13T10:14:00.704Z,1.8
2019-03-13T10:17:11.633Z,2.5
2019-03-13T10:20:00.758Z,2
2019-03-13T10:23:00.723Z,2.7
2019-03-13T10:26:00.529Z,3.6
2019-03-13T10:29:00.392Z,3.2
2019-03-13T10:32:00.477Z,3.2
2019-03-13T10:35:00.733Z,3.1
2019-03-13T10:38:14.758Z,2.8
2019-03-13T10:41:00.895Z,2.4
2019-03-13T10:44:00.687Z,2.1
2019-03-13T10:47:00.591Z,1.6
2019-03-13T10:50:00.726Z,2.3
2019-03-13T10:53:00.618Z,2
2019-03-13T10:56:00.447Z,2.3
2019-03-13T10:59:00.551Z,2.1
2019-03-13T11:02:00.508Z,2.1
2019-03-13T11:05:00.854Z,1.7
2019-03-13T11:08:00.573Z,1.8
2019-03-13T11:11:00.554Z,1.9
2019-03-13T11:14:00.625Z,1.9
2019-03-13T11:17:00.824Z,2.2
2019-03-13T11:20:00.750Z,1.7
2019-03-13T11:23:00.685Z,1.9
2019-03-13T11:26:00.692Z,1.9
2019-03-13T11:29:00.436Z,2.4
2019-03-13T11:32:00.380Z,1.9
2019-03-13T11:35:00.704Z,1.8
2019-03-13T11:38:00.422Z,1.5
2019-03-13T11:41:00.448Z,1.8
2019-03-13T11:44:00.583Z,1.7
2019-03-13T11:47:00.461Z,1.6
2019-03-13T11:50:00.850Z,1.9
2019-03-13T11:53:00.507Z,1.6
2019-03-13T11:56:00.546Z,1.9
2019-03-13T11:59:00.556Z,1.9
2019-03-13T12:02:00.728Z,1.6
2019-03-13T12:05:00.753Z,1.4
2019-03-13T12:08:00.532Z,1.4
2019-03-13T12:11:00.518Z,1.3
2019-03-13T12:14:00.597Z,1.3
2019-03-13T12:17:00.445Z,1.3
2019-03-13T12:20:00.612Z,1.8
2019-03-13T12:23:00.516Z,1.7
2019-03-13T12:26:03.971Z,1.6
2019-03-13T12:29:00.488Z,1.7
2019-03-13T12:32:00.568Z,1.5
2019-03-13T12:35:00.665Z,1.5
2019-03-13T12:38:00.610Z,1.6
2019-03-13T12:41:00.522Z,1.8
2019-03-13T12:44:00.497Z,1.5
2019-03-13T12:47:00.430Z,1.5
2019-03-13T12:50:00.628Z,1.3
2019-03-13T12:53:00.573Z,1.1
2019-03-13T12:56:00.595Z,1.7
2019-03-13T12:59:00.520Z,8.1
2019-03-13T13:02:01.006Z,5.5
2019-03-13T13:05:00.763Z,3.7
2019-03-13T13:08:00.313Z,2.3
2019-03-13T13:11:00.299Z,1.8
2019-03-13T13:14:00.452Z,1.4
2019-03-13T13:17:00.400Z,1.3
2019-03-13T13:20:00.625Z,1.4
2019-03-13T13:23:00.804Z,1.4
2019-03-13T13:26:00.421Z,1.5
2019-03-13T13:29:00.407Z,1.3
2019-03-13T13:32:00.635Z,1.1
2019-03-13T13:35:00.605Z,1.1
2019-03-13T13:38:00.493Z,1.3
2019-03-13T13:41:00.571Z,1.1
2019-03-13T13:44:00.600Z,1.5
2019-03-13T13:47:00.517Z,1.3
2019-03-13T13:50:00.819Z,1.3
2019-03-13T13:53:00.457Z,1.3
2019-03-13T13:56:00.445Z,2.4
2019-03-13T13:59:00.619Z,3
2019-03-13T14:02:00.651Z,3
2019-03-13T14:05:00.712Z,2.2
2019-03-13T14:08:00.629Z,4.1
2019-03-13T14:11:00.278Z,2.7
2019-03-13T14:14:00.411Z,3.9
2019-03-13T14:17:00.408Z,2.8
2019-03-13T14:20:00.692Z,2.8
2019-03-13T14:23:00.458Z,2.7
2019-03-13T14:26:00.408Z,2.7
2019-03-13T14:29:00.687Z,3.1
2019-03-13T14:32:00.333Z,2.8
2019-03-13T14:35:00.800Z,2
2019-03-13T14:38:00.400Z,1.8
2019-03-13T14:41:00.412Z,2.3
2019-03-13T14:44:00.651Z,2
2019-03-13T14:47:00.474Z,1.7
2019-03-13T14:50:00.803Z,2.3
2019-03-13T14:53:00.424Z,2.2
2019-03-13T14:56:00.730Z,3.1
2019-03-13T14:59:00.424Z,3.7
2019-03-13T15:02:00.504Z,4.9
2019-03-13T15:05:00.848Z,4.5
2019-03-13T15:08:01.419Z,3.4
2019-03-13T15:11:00.482Z,3.2
2019-03-13T15:14:00.591Z,4.5
2019-03-13T15:17:00.504Z,3.1
2019-03-13T15:20:00.647Z,2.9
2019-03-13T15:23:00.570Z,2.9
2019-03-13T15:26:00.568Z,2.2
2019-03-13T15:29:00.280Z,1.9
2019-03-13T15:32:00.445Z,2
2019-03-13T15:35:00.608Z,1.9
2019-03-13T15:38:00.545Z,1.9
2019-03-13T15:41:00.424Z,2.1
2019-03-13T15:44:00.407Z,1.9
2019-03-13T15:47:00.346Z,3
2019-03-13T15:50:00.725Z,2.1
2019-03-13T15:53:00.400Z,2.2
2019-03-13T15:56:00.459Z,2.1
2019-03-13T15:59:00.363Z,2.7
2019-03-13T16:02:00.588Z,2.2
2019-03-13T16:05:00.455Z,2
2019-03-13T16:08:00.405Z,1.6
2019-03-13T16:11:00.398Z,2.9
2019-03-13T16:14:00.390Z,4.1
2019-03-13T16:17:00.417Z,4.4
2019-03-13T16:20:00.850Z,3.4
2019-03-13T16:23:00.535Z,2.9
2019-03-13T16:26:00.582Z,2.4
2019-03-13T16:29:00.492Z,2.6
2019-03-13T16:32:00.820Z,2.3
2019-03-13T16:35:00.633Z,2.6
2019-03-13T16:38:01.312Z,2.5
2019-03-13T16:41:00.463Z,2.4
2019-03-13T16:44:00.329Z,2.6
2019-03-13T16:47:00.320Z,2.8
2019-03-13T16:50:00.736Z,5.6
2019-03-13T16:53:00.328Z,8.9
2019-03-13T16:56:00.414Z,10.8
2019-03-13T16:59:00.582Z,9.1
2019-03-13T17:02:00.486Z,6.6
2019-03-13T17:05:00.840Z,5.9
2019-03-13T17:08:00.465Z,5.6
2019-03-13T17:11:00.386Z,5.5
2019-03-13T17:14:00.405Z,4.4
2019-03-13T17:17:00.405Z,4.3
2019-03-13T17:20:00.840Z,4.4
2019-03-13T17:23:00.446Z,3.7
2019-03-13T17:26:00.466Z,5.4
2019-03-13T17:29:00.446Z,4.5
2019-03-13T17:32:00.450Z,3.7
2019-03-13T17:35:00.767Z,3
2019-03-13T17:38:00.500Z,3
2019-03-13T17:41:00.490Z,4.7
2019-03-13T17:44:02.145Z,3.9
2019-03-13T17:47:00.346Z,3.1
2019-03-13T17:50:00.702Z,2.6
2019-03-13T17:53:00.238Z,2.7
2019-03-13T17:56:00.189Z,4.3
2019-03-13T17:59:00.585Z,4.1
2019-03-13T18:02:00.340Z,2.9
2019-03-13T18:05:00.789Z,3.2
2019-03-13T18:08:00.237Z,3.2
2019-03-13T18:11:00.327Z,2.8
2019-03-13T18:14:00.390Z,2.6
2019-03-13T18:17:00.278Z,2.2
2019-03-13T18:20:01.082Z,1.9
2019-03-13T18:23:00.428Z,2.4
2019-03-13T18:26:01.014Z,2.7
2019-03-13T18:29:00.543Z,3.9
2019-03-13T18:32:00.311Z,2.9
2019-03-13T18:35:00.888Z,2.9
2019-03-13T18:38:00.445Z,2.2
2019-03-13T18:41:00.358Z,2
2019-03-13T18:44:00.325Z,2.1
2019-03-13T18:47:00.571Z,1.9
2019-03-13T18:50:00.454Z,1.7
2019-03-13T18:53:00.347Z,1.9
2019-03-13T18:56:00.419Z,1.8
2019-03-13T18:59:00.400Z,1.9
2019-03-13T19:02:00.485Z,1.6
2019-03-13T19:05:00.523Z,1.5
2019-03-13T19:08:00.325Z,1.6
2019-03-13T19:11:00.387Z,1.5
2019-03-13T19:14:00.752Z,1.3
2019-03-13T19:17:00.290Z,1.4
2019-03-13T19:20:00.789Z,1.4
2019-03-13T19:23:00.463Z,1.4
2019-03-13T19:26:00.411Z,1.5
2019-03-13T19:29:02.201Z,1.9
2019-03-13T19:32:00.434Z,3
2019-03-13T19:35:00.651Z,3
2019-03-13T19:38:00.390Z,3
2019-03-13T19:41:00.387Z,4.3
2019-03-13T19:44:00.511Z,4.7
2019-03-13T19:47:00.255Z,3.8
2019-03-13T19:50:00.725Z,4.5
2019-03-13T19:53:00.534Z,3.8
2019-03-13T19:56:00.302Z,3.7
2019-03-13T19:59:00.291Z,3.7
2019-03-13T20:02:00.349Z,4.8
2019-03-13T20:05:00.651Z,3.4
2019-03-13T20:08:00.334Z,3.2
2019-03-13T20:11:00.455Z,3.1
2019-03-13T20:14:00.406Z,3.5
2019-03-13T20:17:00.477Z,2.6
2019-03-13T20:20:00.875Z,2.5
2019-03-13T20:23:00.415Z,2.7
2019-03-13T20:26:00.443Z,4.1
2019-03-13T20:29:00.509Z,3
2019-03-13T20:32:00.373Z,3.6
2019-03-13T20:35:00.635Z,3
2019-03-13T20:38:00.858Z,3.2
2019-03-13T20:41:00.287Z,2.5
2019-03-13T20:44:00.197Z,2.6
2019-03-13T20:47:00.265Z,2.9
2019-03-13T20:50:00.319Z,2.7
2019-03-13T20:53:00.331Z,2.3
2019-03-13T20:56:00.240Z,3.8
2019-03-13T20:59:00.183Z,3.5
2019-03-13T21:02:01.007Z,2.9
2019-03-13T21:05:00.664Z,2.6
2019-03-13T21:08:00.387Z,2.1
2019-03-13T21:11:00.427Z,2.5
2019-03-13T21:14:00.463Z,2.8
2019-03-13T21:17:00.155Z,2.8
2019-03-13T21:20:00.272Z,2.2
2019-03-13T21:23:00.230Z,1.8
2019-03-13T21:26:00.269Z,2
2019-03-13T21:29:00.309Z,1.7
2019-03-13T21:32:00.253Z,1.6
2019-03-13T21:35:00.654Z,1.7
2019-03-13T21:38:00.411Z,1.9
2019-03-13T21:41:00.514Z,1.7
2019-03-13T21:44:00.484Z,2
2019-03-13T21:47:00.375Z,2.1
2019-03-13T21:50:00.767Z,2
2019-03-13T21:53:00.542Z,1.8
2019-03-13T21:56:00.448Z,1.8
2019-03-13T21:59:00.255Z,1.5
2019-03-13T22:02:00.191Z,1.5
2019-03-13T22:05:00.699Z,1.7
2019-03-13T22:08:00.216Z,1.6
2019-03-13T22:11:00.338Z,1.9
2019-03-13T22:14:00.222Z,1.9
2019-03-13T22:17:00.280Z,1.9
2019-03-13T22:20:00.747Z,1.6
2019-03-13T22:23:00.314Z,1.5
2019-03-13T22:26:00.288Z,1.4
2019-03-13T22:29:00.366Z,1.4
2019-03-13T22:32:00.486Z,1.3
2019-03-13T22:35:00.684Z,1.3
2019-03-13T22:38:00.556Z,1.6
2019-03-13T22:41:00.359Z,1.4
2019-03-13T22:44:00.464Z,1.4
2019-03-13T22:47:00.616Z,1.5
2019-03-13T22:50:00.795Z,1.4
2019-03-13T22:53:00.425Z,1.3
2019-03-13T22:56:00.365Z,1.2
2019-03-13T22:59:00.338Z,1.3
2019-03-13T23:02:00.207Z,1.3
2019-03-13T23:05:00.638Z,1.2
2019-03-13T23:08:00.366Z,1.3
2019-03-13T23:11:00.255Z,1.2
2019-03-13T23:14:00.318Z,1.2
2019-03-13T23:17:00.338Z,1.2
2019-03-13T23:20:00.615Z,1.2
2019-03-13T23:23:00.398Z,1.2
2019-03-13T23:26:00.378Z,1.2
2019-03-13T23:29:00.289Z,1.3
2019-03-13T23:32:00.278Z,1.3
2019-03-13T23:35:04.996Z,1.3
2019-03-13T23:38:00.344Z,1.3
2019-03-13T23:41:00.326Z,1.3
2019-03-13T23:44:00.342Z,1.3
2019-03-13T23:47:00.474Z,1.2
2019-03-13T23:50:00.722Z,1.1
2019-03-13T23:53:00.125Z,1.2
2019-03-13T23:56:00.119Z,1.2
2019-03-13T23:59:00.179Z,1.3
